Time;durP1;ratioP1;P1;durP2;ratioP2;P2;SDS_P1;SDS_P2;PMS_P1;PMS_P2;Temp;Humidity;BMP_temperature;BMP_pressure;BME280_temperature;BME280_humidity;BME280_pressure;Samples;Min_cycle;Max_cycle;Signal;HPM_P1;HPM_P2
2021/12/18 00:00:12;;;;;;;32.92;14.32;;;;;;;0.93;100.00;97345.31;5007162;28;20045;-75
2021/12/18 00:02:58;;;;;;;35.70;15.27;;;;;;;0.96;100.00;97334.59;5008088;28;20058;-75
2021/12/18 00:05:24;;;;;;;38.53;15.85;;;;;;;0.75;100.00;97354.06;4995845;28;20755;-76
2021/12/18 00:07:49;;;;;;;37.05;15.82;;;;;;;0.50;100.00;97356.63;5007400;28;20037;-76
2021/12/18 00:10:19;;;;;;;37.33;16.52;;;;;;;0.57;100.00;97350.78;5008387;28;20038;-76
2021/12/18 00:12:49;;;;;;;35.60;16.27;;;;;;;0.48;100.00;97358.56;5008231;28;20073;-75
2021/12/18 00:15:19;;;;;;;39.22;16.15;;;;;;;0.51;100.00;97358.22;5003081;28;20597;-75
2021/12/18 00:17:44;;;;;;;37.38;16.17;;;;;;;0.75;100.00;97356.66;5001492;28;20049;-75
2021/12/18 00:20:11;;;;;;;38.42;16.10;;;;;;;0.92;100.00;97360.06;4987822;28;20030;-75
2021/12/18 00:22:37;;;;;;;34.28;15.63;;;;;;;0.96;100.00;97360.53;4989881;28;20077;-75
2021/12/18 00:25:03;;;;;;;40.25;16.65;;;;;;;0.93;100.00;97351.28;4998937;28;20121;-75
2021/12/18 00:27:28;;;;;;;37.90;16.33;;;;;;;0.92;100.00;97360.06;4990100;28;20100;-75
2021/12/18 00:29:54;;;;;;;37.67;15.90;;;;;;;0.91;100.00;97362.81;5006935;28;20651;-74
2021/12/18 00:32:19;;;;;;;42.80;17.73;;;;;;;0.89;100.00;97354.38;5006006;28;20045;-75
2021/12/18 00:34:45;;;;;;;37.30;15.60;;;;;;;0.88;100.00;97363.13;5004809;28;20116;-75
2021/12/18 00:37:11;;;;;;;37.20;17.35;;;;;;;0.73;100.00;97368.94;5006922;28;20401;-75
2021/12/18 00:39:44;;;;;;;41.72;17.45;;;;;;;0.52;100.00;97380.59;5013976;28;20108;-75
2021/12/18 00:44:50;;;;;;;48.03;17.80;;;;;;;0.52;100.00;97390.94;5011683;28;20049;-75
2021/12/18 00:47:15;;;;;;;41.10;16.80;;;;;;;0.54;100.00;97387.41;5006270;28;20050;-76
2021/12/18 00:49:41;;;;;;;45.47;17.45;;;;;;;0.36;100.00;97383.16;5003446;28;20050;-74
2021/12/18 00:52:07;;;;;;;38.80;15.55;;;;;;;0.35;100.00;97389.28;5006716;28;20075;-75
2021/12/18 00:54:34;;;;;;;41.25;14.95;;;;;;;0.29;100.00;97392.53;5007853;28;20114;-75
2021/12/18 00:57:00;;;;;;;37.65;15.10;;;;;;;0.17;100.00;97387.63;5009678;28;20058;-75
2021/12/18 00:59:26;;;;;;;44.90;15.43;;;;;;;0.20;100.00;97396.03;4993379;28;20786;-74
2021/12/18 01:01:51;;;;;;;43.78;15.60;;;;;;;0.11;100.00;97392.63;5011081;28;20045;-75
2021/12/18 01:04:18;;;;;;;43.63;14.88;;;;;;;0.15;100.00;97394.72;5003661;28;20046;-75
2021/12/18 01:06:44;;;;;;;42.20;15.60;;;;;;;0.11;100.00;97396.00;4980430;28;20045;-75
2021/12/18 01:09:10;;;;;;;44.95;15.73;;;;;;;0.01;100.00;97392.72;4998318;28;20038;-75
2021/12/18 01:11:43;;;;;;;43.72;15.88;;;;;;;-0.03;100.00;97396.59;4974741;28;20125;-75
2021/12/18 01:24:40;;;;;;;49.90;16.48;;;;;;;-0.18;100.00;97423.06;5007563;28;20100;-76
2021/12/18 01:27:06;;;;;;;45.53;14.18;;;;;;;-0.09;100.00;97438.63;5011329;28;20045;-75
2021/12/18 01:29:31;;;;;;;51.30;16.55;;;;;;;-0.33;100.00;97437.53;4993266;28;20050;-75
2021/12/18 01:31:57;;;;;;;56.08;16.48;;;;;;;-0.39;100.00;97422.63;4991342;28;20061;-75
2021/12/18 01:34:22;;;;;;;57.50;18.20;;;;;;;-0.40;100.00;97428.78;5003173;28;20049;-75
2021/12/18 01:36:48;;;;;;;58.13;17.30;;;;;;;-0.49;100.00;97427.09;5018406;28;20403;-74
2021/12/18 01:39:13;;;;;;;60.50;17.73;;;;;;;-0.38;100.00;97442.34;5003045;28;20045;-75
2021/12/18 01:42:00;;;;;;;55.67;16.92;;;;;;;-0.36;100.00;97437.81;5005391;28;20101;-75
2021/12/18 01:44:53;;;;;;;67.30;17.75;;;;;;;-0.37;100.00;97441.41;4998241;28;20042;-75
2021/12/18 01:52:53;;;;;;;57.63;16.75;;;;;;;-0.47;100.00;97420.00;5011210;28;20721;-74
2021/12/18 01:55:32;;;;;;;60.80;17.23;;;;;;;-0.51;100.00;97416.09;5001927;28;20038;-75
2021/12/18 01:57:58;;;;;;;63.35;16.60;;;;;;;-0.62;100.00;97412.75;4991385;28;20125;-75
2021/12/18 02:00:28;;;;;;;65.75;17.17;;;;;;;-0.53;100.00;97401.53;5005171;28;20554;-75
2021/12/18 02:02:53;;;;;;;49.05;14.88;;;;;;;-0.54;100.00;97392.13;5010484;28;20455;-74
2021/12/18 02:05:20;;;;;;;59.47;16.00;;;;;;;-0.59;100.00;97394.38;5007919;28;20050;-75
2021/12/18 02:07:46;;;;;;;50.63;15.07;;;;;;;-0.62;100.00;97397.25;5004320;28;20042;-75
2021/12/18 02:10:20;;;;;;;58.95;14.75;;;;;;;-0.55;100.00;97395.72;4991924;28;20392;-75
2021/12/18 02:12:56;;;;;;;60.75;16.83;;;;;;;-0.70;100.00;97389.47;5010756;28;20053;-75
2021/12/18 02:20:55;;;;;;;40.53;12.88;;;;;;;-0.23;100.00;97396.00;5003275;28;20606;-75
2021/12/18 02:23:21;;;;;;;41.72;13.20;;;;;;;-0.22;100.00;97388.09;4995985;28;20038;-76
2021/12/18 02:25:47;;;;;;;50.35;16.08;;;;;;;-0.53;100.00;97386.00;4998490;28;20042;-76
2021/12/18 02:28:18;;;;;;;35.28;11.85;;;;;;;-0.20;100.00;97386.19;5007183;28;20049;-76
2021/12/18 02:30:46;;;;;;;39.90;13.48;;;;;;;-0.36;100.00;97386.09;4999760;28;20484;-76
2021/12/18 02:33:12;;;;;;;49.80;14.50;;;;;;;-0.56;100.00;97388.06;5003661;28;20133;-76
2021/12/18 02:35:45;;;;;;;41.83;13.70;;;;;;;-0.63;100.00;97397.41;4982445;28;20137;-76
2021/12/18 02:38:19;;;;;;;56.22;15.23;;;;;;;-0.78;100.00;97397.94;5002268;28;20100;-76
2021/12/18 02:41:15;;;;;;;42.38;13.15;;;;;;;-0.70;100.00;97399.81;4978307;28;20046;-76
2021/12/18 02:43:39;;;;;;;53.00;13.55;;;;;;;-0.72;100.00;97387.03;5002722;28;20057;-76
2021/12/18 02:46:07;;;;;;;54.08;14.80;;;;;;;-0.73;100.00;97379.41;5004467;28;20113;-76
2021/12/18 02:48:40;;;;;;;70.03;15.38;;;;;;;-0.94;100.00;97366.81;4991857;28;20060;-75
2021/12/18 02:51:09;;;;;;;53.65;13.75;;;;;;;-0.89;100.00;97370.59;4994146;28;20092;-76
2021/12/18 02:53:37;;;;;;;49.95;13.50;;;;;;;-0.78;100.00;97376.47;4990174;28;20041;-76
2021/12/18 02:56:05;;;;;;;49.95;13.82;;;;;;;-0.89;100.00;97375.75;4998345;28;20132;-76
2021/12/18 02:58:35;;;;;;;50.33;14.32;;;;;;;-0.53;100.00;97380.84;5005801;28;20034;-76
2021/12/18 03:01:03;;;;;;;43.10;13.73;;;;;;;-0.42;100.00;97371.19;4993476;28;20131;-76
2021/12/18 03:03:32;;;;;;;44.97;14.10;;;;;;;-0.61;100.00;97357.50;5008836;28;20046;-76
2021/12/18 03:06:18;;;;;;;52.30;14.15;;;;;;;-0.54;100.00;97353.34;5008962;28;20045;-76
2021/12/18 03:09:51;;;;;;;44.80;12.80;;;;;;;-0.55;100.00;97356.91;4995086;28;20038;-75
2021/12/18 03:27:43;;;;;;;92.95;16.58;;;;;;;-1.01;100.00;97343.34;5008375;28;20171;-76
2021/12/18 03:30:09;;;;;;;65.72;15.52;;;;;;;-0.96;100.00;97343.72;5008993;28;20133;-76
2021/12/18 03:32:35;;;;;;;69.05;14.82;;;;;;;-0.88;100.00;97345.53;5007971;28;20103;-77
2021/12/18 03:35:01;;;;;;;71.22;15.32;;;;;;;-0.93;100.00;97347.78;5006429;28;20451;-76
2021/12/18 03:37:27;;;;;;;71.28;15.95;;;;;;;-0.98;100.00;97345.63;5002693;28;20046;-76
2021/12/18 03:39:52;;;;;;;99.03;17.63;;;;;;;-1.07;100.00;97356.88;5004532;28;20029;-76
2021/12/18 03:42:18;;;;;;;73.03;15.63;;;;;;;-1.02;100.00;97349.50;5008951;28;20100;-75
2021/12/18 03:44:44;;;;;;;63.35;14.90;;;;;;;-0.84;100.00;97349.44;5008079;28;20042;-76
2021/12/18 03:47:10;;;;;;;86.32;16.50;;;;;;;-1.03;100.00;97345.28;5007383;28;20129;-76
2021/12/18 03:49:35;;;;;;;66.38;14.82;;;;;;;-0.95;100.00;97355.69;4990634;28;20045;-76
2021/12/18 03:52:01;;;;;;;60.22;15.07;;;;;;;-0.96;100.00;97359.22;5006319;28;20046;-76
2021/12/18 03:54:27;;;;;;;52.75;14.32;;;;;;;-0.91;100.00;97351.00;5006132;28;20049;-77
2021/12/18 03:56:53;;;;;;;67.18;15.30;;;;;;;-1.01;100.00;97356.28;5005708;28;20049;-76
2021/12/18 03:59:18;;;;;;;95.45;15.90;;;;;;;-1.00;100.00;97363.06;5000892;28;20038;-77
2021/12/18 04:01:44;;;;;;;88.65;16.65;;;;;;;-1.07;100.00;97351.72;5007604;28;20082;-77
2021/12/18 04:04:10;;;;;;;67.65;14.15;;;;;;;-1.07;100.00;97346.53;4973378;28;20046;-76
2021/12/18 04:06:39;;;;;;;106.05;18.00;;;;;;;-1.12;100.00;97346.16;4995210;28;20046;-76
2021/12/18 04:09:06;;;;;;;73.22;14.70;;;;;;;-1.12;100.00;97338.41;5005588;28;20038;-76
2021/12/18 04:11:32;;;;;;;73.88;13.93;;;;;;;-1.06;100.00;97353.34;4996016;28;20042;-77
2021/12/18 04:13:58;;;;;;;75.07;14.70;;;;;;;-1.08;100.00;97344.91;4993730;28;20052;-77
2021/12/18 04:16:24;;;;;;;58.50;13.75;;;;;;;-1.01;100.00;97345.94;4996303;28;20634;-77
2021/12/18 04:18:49;;;;;;;65.50;13.82;;;;;;;-1.10;100.00;97341.69;4982647;28;20079;-77
2021/12/18 04:21:15;;;;;;;54.45;14.05;;;;;;;-1.12;100.00;97348.75;4996099;28;20034;-76
2021/12/18 04:23:41;;;;;;;63.50;14.50;;;;;;;-1.12;100.00;97348.75;4995788;28;20046;-77
2021/12/18 04:26:06;;;;;;;52.50;13.95;;;;;;;-1.05;100.00;97354.94;5004526;28;20112;-76
2021/12/18 04:28:32;;;;;;;66.38;13.32;;;;;;;-1.23;100.00;97358.38;5014117;28;20042;-76
2021/12/18 04:30:58;;;;;;;54.30;12.35;;;;;;;-1.38;100.00;97359.84;5013259;28;20685;-76
2021/12/18 04:33:23;;;;;;;60.10;12.93;;;;;;;-1.37;100.00;97345.19;5009801;28;20049;-77
2021/12/18 04:35:50;;;;;;;72.47;13.63;;;;;;;-1.30;100.00;97357.34;4993342;28;20420;-76
2021/12/18 04:38:15;;;;;;;80.55;15.75;;;;;;;-1.29;100.00;97353.00;5012271;28;20136;-76
2021/12/18 04:40:43;;;;;;;72.53;15.30;;;;;;;-1.30;100.00;97357.34;5014561;28;20472;-77
2021/12/18 04:43:09;;;;;;;64.13;12.32;;;;;;;-1.29;100.00;97366.72;5004890;28;20672;-77
2021/12/18 04:45:34;;;;;;;50.13;12.80;;;;;;;-1.00;100.00;97368.25;5008643;28;20042;-76
2021/12/18 04:48:00;;;;;;;66.40;14.20;;;;;;;-1.24;100.00;97359.31;5010457;28;20037;-77
2021/12/18 04:50:26;;;;;;;52.13;12.73;;;;;;;-1.09;100.00;97358.81;5014480;28;20042;-77
2021/12/18 04:52:52;;;;;;;49.58;12.18;;;;;;;-0.85;100.00;97365.09;5013823;28;20038;-77
2021/12/18 04:55:18;;;;;;;47.45;12.15;;;;;;;-0.74;100.00;97362.28;5009300;28;20050;-77
2021/12/18 04:57:44;;;;;;;49.80;11.40;;;;;;;-0.91;100.00;97369.91;5012274;28;20133;-77
2021/12/18 05:00:12;;;;;;;47.40;12.35;;;;;;;-0.81;100.00;97361.25;5008424;28;20125;-76
2021/12/18 05:02:42;;;;;;;42.67;11.85;;;;;;;-0.93;100.00;97364.09;4998097;28;20042;-77
2021/12/18 05:05:10;;;;;;;53.83;13.13;;;;;;;-1.03;100.00;97371.13;4993705;28;20046;-76
2021/12/18 05:07:35;;;;;;;40.08;12.45;;;;;;;-0.73;100.00;97374.25;4991303;28;20121;-76
2021/12/18 05:10:03;;;;;;;45.03;12.65;;;;;;;-0.77;100.00;97378.91;5020065;28;20080;-76
2021/12/18 05:12:28;;;;;;;49.92;12.40;;;;;;;-0.88;100.00;97367.03;4995757;28;20510;-76
2021/12/18 05:14:54;;;;;;;43.05;11.45;;;;;;;-0.63;100.00;97368.97;5013637;28;20076;-76
2021/12/18 05:17:19;;;;;;;34.50;10.52;;;;;;;-0.70;100.00;97379.91;5007964;28;20050;-76
2021/12/18 05:19:45;;;;;;;42.15;11.05;;;;;;;-0.94;100.00;97377.97;4997240;28;20496;-77
2021/12/18 05:22:11;;;;;;;36.83;10.48;;;;;;;-0.77;100.00;97381.50;4997862;28;20053;-76
2021/12/18 05:24:37;;;;;;;33.63;9.90;;;;;;;-0.80;100.00;97383.56;5008552;28;20050;-77
2021/12/18 05:27:02;;;;;;;31.10;8.75;;;;;;;-0.68;100.00;97382.34;5008648;28;20042;-76
2021/12/18 05:29:28;;;;;;;33.88;9.57;;;;;;;-1.08;100.00;97375.91;5011328;28;20048;-76
2021/12/18 05:31:54;;;;;;;35.42;11.15;;;;;;;-1.11;100.00;97381.38;5009728;28;20411;-76
2021/12/18 05:34:25;;;;;;;32.58;9.23;;;;;;;-1.07;100.00;97382.72;5006749;28;20034;-77
2021/12/18 05:39:23;;;;;;;35.95;10.63;;;;;;;-1.11;100.00;97376.22;5011131;28;20042;-76
2021/12/18 05:41:50;;;;;;;33.78;10.52;;;;;;;-1.18;100.00;97385.53;5010319;28;20125;-76
2021/12/18 05:44:18;;;;;;;38.40;10.10;;;;;;;-1.29;100.00;97374.47;5017300;28;20456;-76
2021/12/18 05:46:44;;;;;;;40.13;10.13;;;;;;;-1.29;100.00;97374.47;5009539;28;20041;-76
2021/12/18 05:49:10;;;;;;;40.20;11.60;;;;;;;-1.28;100.00;97370.09;5010678;28;20077;-77
2021/12/18 05:51:36;;;;;;;39.33;10.85;;;;;;;-1.17;100.00;97371.66;5010546;28;20061;-76
2021/12/18 05:54:02;;;;;;;34.50;10.15;;;;;;;-0.89;100.00;97368.00;5009826;28;20042;-77
2021/12/18 05:56:28;;;;;;;32.70;9.43;;;;;;;-0.89;100.00;97370.59;4991978;28;20825;-77
2021/12/18 05:58:54;;;;;;;30.23;10.27;;;;;;;-0.89;100.00;97365.41;5010620;28;20037;-77
2021/12/18 06:01:19;;;;;;;27.30;8.93;;;;;;;-0.79;100.00;97367.91;5009246;28;20663;-76
2021/12/18 06:03:45;;;;;;;26.02;7.93;;;;;;;-0.70;100.00;97376.53;4998447;28;20492;-76
2021/12/18 06:06:11;;;;;;;35.03;9.48;;;;;;;-0.67;100.00;97383.97;4989565;28;20037;-76
2021/12/18 06:08:38;;;;;;;23.52;7.53;;;;;;;-0.75;100.00;97386.50;5006651;28;20408;-77
2021/12/18 06:11:09;;;;;;;24.60;8.63;;;;;;;-0.67;100.00;97388.34;5010254;28;20038;-77
2021/12/18 06:13:35;;;;;;;18.45;7.60;;;;;;;-0.66;100.00;97385.59;5009686;28;20450;-76
2021/12/18 06:16:01;;;;;;;22.02;7.63;;;;;;;-0.78;100.00;97391.97;5010115;28;20070;-76
2021/12/18 06:18:27;;;;;;;22.63;7.85;;;;;;;-0.90;100.00;97399.97;5006975;28;20048;-76
2021/12/18 06:20:52;;;;;;;26.40;8.57;;;;;;;-1.03;100.00;97394.38;5010754;28;20042;-75
2021/12/18 06:23:18;;;;;;;29.90;9.05;;;;;;;-1.35;100.00;97384.56;4992129;28;20463;-75
2021/12/18 06:25:45;;;;;;;24.75;7.80;;;;;;;-1.38;100.00;97390.84;5004295;28;20038;-76
2021/12/18 06:28:10;;;;;;;30.23;8.35;;;;;;;-1.26;100.00;97394.84;4999145;28;20125;-76
2021/12/18 06:30:36;;;;;;;33.90;8.93;;;;;;;-1.23;100.00;97399.69;5009350;28;20052;-77
2021/12/18 06:33:01;;;;;;;35.75;9.25;;;;;;;-1.23;100.00;97399.69;5007230;28;20045;-76
2021/12/18 06:35:27;;;;;;;36.67;9.80;;;;;;;-1.24;100.00;97387.72;5006859;28;20050;-76
2021/12/18 06:37:53;;;;;;;38.95;10.13;;;;;;;-1.24;100.00;97382.56;4988611;28;20415;-76
2021/12/18 06:40:18;;;;;;;36.70;9.52;;;;;;;-1.30;100.00;97383.16;4992453;28;20042;-76
2021/12/18 06:42:44;;;;;;;32.95;9.52;;;;;;;-1.34;100.00;97383.63;5008540;28;20038;-76
2021/12/18 06:45:11;;;;;;;31.20;8.73;;;;;;;-1.25;100.00;97383.56;5005955;28;20097;-76
2021/12/18 06:47:37;;;;;;;33.92;10.25;;;;;;;-1.15;100.00;97385.22;4986153;28;20317;-77
2021/12/18 06:50:04;;;;;;;37.60;10.50;;;;;;;-1.18;100.00;97380.38;5008512;28;20059;-77
2021/12/18 06:52:30;;;;;;;36.40;10.43;;;;;;;-1.27;100.00;97377.69;5009669;28;20049;-76
2021/12/18 06:54:56;;;;;;;41.05;10.82;;;;;;;-1.28;100.00;97385.59;5009212;28;20430;-77
2021/12/18 06:57:22;;;;;;;40.40;10.75;;;;;;;-1.20;100.00;97382.28;5007890;28;20451;-77
2021/12/18 06:59:49;;;;;;;35.83;9.90;;;;;;;-1.22;100.00;97369.53;5007519;28;20507;-76
2021/12/18 07:02:15;;;;;;;44.90;11.60;;;;;;;-1.25;100.00;97380.97;5004807;28;20038;-76
2021/12/18 07:04:41;;;;;;;34.15;8.93;;;;;;;-1.10;100.00;97380.44;5008257;28;20629;-77
2021/12/18 07:07:06;;;;;;;28.52;9.35;;;;;;;-0.91;100.00;97377.66;4993688;28;20044;-76
2021/12/18 07:09:32;;;;;;;32.90;9.27;;;;;;;-0.87;100.00;97373.81;5008087;28;20048;-76
2021/12/18 07:11:58;;;;;;;30.15;9.63;;;;;;;-0.82;100.00;97375.16;5007100;28;20092;-77
2021/12/18 07:14:23;;;;;;;33.40;9.27;;;;;;;-0.94;100.00;97383.13;5001141;28;20551;-77
2021/12/18 07:16:49;;;;;;;27.95;9.15;;;;;;;-0.91;100.00;97369.91;4996749;28;20050;-76
2021/12/18 07:19:14;;;;;;;27.00;9.25;;;;;;;-0.73;100.00;97363.91;4990805;28;20543;-76
2021/12/18 07:21:40;;;;;;;24.45;7.78;;;;;;;-0.77;100.00;97367.75;5005755;28;20048;-76
2021/12/18 07:24:06;;;;;;;30.85;8.00;;;;;;;-0.85;100.00;97365.09;5002338;28;20041;-76
2021/12/18 07:26:32;;;;;;;24.13;8.63;;;;;;;-1.01;100.00;97366.59;5007233;28;20048;-77
2021/12/18 07:28:59;;;;;;;29.98;9.20;;;;;;;-0.80;100.00;97368.06;5009044;28;20100;-76
2021/12/18 07:31:25;;;;;;;25.52;8.43;;;;;;;-0.80;100.00;97373.25;4993343;28;20050;-77
2021/12/18 07:33:51;;;;;;;26.52;8.65;;;;;;;-0.85;100.00;97371.09;5005067;28;20041;-77
2021/12/18 07:36:17;;;;;;;28.60;8.73;;;;;;;-0.84;100.00;97362.38;5007602;28;20535;-77
2021/12/18 07:38:43;;;;;;;31.95;10.65;;;;;;;-0.75;100.00;97365.81;4983126;28;20038;-76
2021/12/18 07:41:10;;;;;;;33.92;10.63;;;;;;;-0.74;100.00;97365.66;5006263;28;20525;-77
2021/12/18 07:43:36;;;;;;;30.10;10.07;;;;;;;-0.74;100.00;97367.44;4990215;28;20045;-76
2021/12/18 07:46:02;;;;;;;28.13;9.23;;;;;;;-0.73;100.00;97369.88;4986455;28;20038;-76
2021/12/18 07:48:27;;;;;;;38.90;10.60;;;;;;;-0.75;100.00;97371.00;4999474;28;20049;-76
2021/12/18 07:50:53;;;;;;;30.85;9.60;;;;;;;-0.64;100.00;97368.16;5001618;28;20503;-77
2021/12/18 07:53:19;;;;;;;39.35;11.73;;;;;;;-0.78;100.00;97366.94;5000742;28;20038;-76
2021/12/18 07:55:45;;;;;;;29.40;10.02;;;;;;;-0.65;100.00;97371.69;5001060;28;20050;-76
2021/12/18 07:58:11;;;;;;;32.30;10.45;;;;;;;-0.65;100.00;97365.72;5008404;28;20556;-77
2021/12/18 08:00:36;;;;;;;34.63;11.27;;;;;;;-0.70;100.00;97368.78;5005233;28;20068;-76
2021/12/18 08:03:02;;;;;;;34.85;10.85;;;;;;;-0.70;100.00;97364.41;4990431;28;20048;-77
2021/12/18 08:05:27;;;;;;;36.85;11.55;;;;;;;-0.69;100.00;97370.38;4997785;28;20049;-76
2021/12/18 08:07:53;;;;;;;33.63;11.73;;;;;;;-0.80;100.00;97373.25;4994137;28;20042;-76
2021/12/18 08:10:19;;;;;;;47.67;12.43;;;;;;;-0.99;100.00;97369.88;4988453;28;20057;-77
2021/12/18 08:12:44;;;;;;;44.95;12.70;;;;;;;-1.02;100.00;97365.00;5008220;28;20050;-77
2021/12/18 08:15:10;;;;;;;46.70;13.00;;;;;;;-0.93;100.00;97369.25;5004191;28;20092;-77
2021/12/18 08:17:36;;;;;;;49.72;12.88;;;;;;;-0.89;100.00;97375.75;4988865;28;20096;-77
2021/12/18 08:20:07;;;;;;;47.03;12.00;;;;;;;-0.85;100.00;97380.63;5007350;28;20038;-78
2021/12/18 08:22:33;;;;;;;45.47;12.07;;;;;;;-1.01;100.00;97376.16;5016362;28;20073;-80
2021/12/18 08:25:00;;;;;;;55.13;14.07;;;;;;;-0.97;100.00;97388.59;5012612;28;20096;-79
2021/12/18 08:27:27;;;;;;;70.13;15.68;;;;;;;-0.96;100.00;97390.25;4998179;28;20041;-79
2021/12/18 08:29:52;;;;;;;54.08;13.75;;;;;;;-0.94;100.00;97388.31;5015409;28;20041;-78
2021/12/18 08:32:18;;;;;;;57.55;14.02;;;;;;;-0.89;100.00;97380.09;5013567;28;20049;-77
2021/12/18 08:34:44;;;;;;;56.40;13.15;;;;;;;-0.87;100.00;97384.16;4986350;28;20050;-78
2021/12/18 08:37:10;;;;;;;41.67;12.88;;;;;;;-0.83;100.00;97381.25;5007342;28;20057;-78
2021/12/18 08:39:35;;;;;;;56.03;14.50;;;;;;;-0.79;100.00;97385.19;4999594;28;20577;-77
2021/12/18 08:42:04;;;;;;;48.25;13.95;;;;;;;-0.77;100.00;97378.91;5011302;28;20034;-78
2021/12/18 08:44:31;;;;;;;63.33;15.13;;;;;;;-0.94;100.00;97372.78;5007518;28;20045;-79
2021/12/18 08:46:57;;;;;;;59.97;14.88;;;;;;;-0.83;100.00;97378.69;5017084;28;20046;-78
2021/12/18 08:49:25;;;;;;;60.17;15.15;;;;;;;-0.90;100.00;97374.13;5011499;28;20050;-79
2021/12/18 08:51:50;;;;;;;59.92;15.70;;;;;;;-0.88;100.00;97382.56;4999175;28;20065;-79
2021/12/18 08:54:16;;;;;;;50.70;13.90;;;;;;;-0.77;100.00;97384.06;5004075;28;20038;-79
2021/12/18 08:56:42;;;;;;;54.35;14.68;;;;;;;-0.75;100.00;97381.34;5019074;28;20050;-79
2021/12/18 08:59:07;;;;;;;52.03;14.27;;;;;;;-0.56;100.00;97386.31;5012695;28;20504;-77
2021/12/18 09:01:33;;;;;;;54.58;14.50;;;;;;;-0.39;100.00;97376.03;5016509;28;20042;-79
2021/12/18 09:03:59;;;;;;;49.40;13.82;;;;;;;-0.65;100.00;97387.22;5012227;28;20038;-77
2021/12/18 09:06:25;;;;;;;51.45;14.18;;;;;;;-0.45;100.00;97381.84;4998236;28;20048;-78
2021/12/18 09:08:51;;;;;;;53.55;14.13;;;;;;;-0.73;100.00;97384.59;5012888;28;20043;-80
2021/12/18 09:11:17;;;;;;;51.05;13.63;;;;;;;-0.64;100.00;97378.50;5007222;28;20053;-80
2021/12/18 09:13:43;;;;;;;49.08;12.77;;;;;;;-0.72;100.00;97381.84;4998584;28;20050;-79
2021/12/18 09:16:08;;;;;;;50.35;13.27;;;;;;;-0.70;100.00;97373.94;5012325;28;20054;-79
2021/12/18 09:18:34;;;;;;;43.45;12.85;;;;;;;-0.65;100.00;97379.44;4997502;28;20120;-78
2021/12/18 09:21:00;;;;;;;53.05;14.05;;;;;;;-0.61;100.00;97367.03;4997468;28;20052;-78
2021/12/18 09:23:25;;;;;;;43.47;13.05;;;;;;;-0.62;100.00;97376.56;5016290;28;20046;-78
2021/12/18 09:25:51;;;;;;;40.28;11.98;;;;;;;-0.65;100.00;97376.06;4999927;28;20401;-79
2021/12/18 09:28:17;;;;;;;47.22;13.23;;;;;;;-0.50;100.00;97379.72;5004676;28;20045;-79
2021/12/18 09:30:42;;;;;;;38.08;11.77;;;;;;;-0.46;100.00;97375.03;5016349;28;20038;-77
2021/12/18 09:33:12;;;;;;;48.58;14.23;;;;;;;-0.49;100.00;97380.53;5015113;28;20068;-79
2021/12/18 09:35:38;;;;;;;46.50;13.18;;;;;;;-0.54;100.00;97371.44;5004351;28;20474;-77
2021/12/18 09:38:03;;;;;;;47.90;12.50;;;;;;;-0.48;100.00;97374.41;5004074;28;20053;-77
2021/12/18 09:40:29;;;;;;;43.75;13.52;;;;;;;-0.59;100.00;97371.09;5012583;28;20041;-79
2021/12/18 09:42:56;;;;;;;51.13;15.05;;;;;;;-0.51;100.00;97367.75;5006002;28;20417;-78
2021/12/18 09:45:23;;;;;;;53.25;13.70;;;;;;;-0.54;100.00;97368.06;4991624;28;20757;-80
2021/12/18 09:47:49;;;;;;;58.42;15.32;;;;;;;-0.45;100.00;97361.16;5005050;28;20510;-78
2021/12/18 09:50:17;;;;;;;74.63;16.65;;;;;;;-0.48;100.00;97361.47;5012378;28;20050;-77
2021/12/18 09:52:42;;;;;;;55.55;14.68;;;;;;;-0.64;100.00;97352.63;5010637;28;20092;-77
2021/12/18 09:55:09;;;;;;;56.20;14.68;;;;;;;-0.56;100.00;97355.28;5008644;28;20041;-78
2021/12/18 09:57:34;;;;;;;61.30;15.27;;;;;;;-0.51;100.00;97351.44;5009901;28;20073;-78
2021/12/18 10:00:00;;;;;;;55.05;14.27;;;;;;;-0.53;100.00;97349.78;5010675;28;20073;-78
2021/12/18 10:02:26;;;;;;;52.47;13.65;;;;;;;-0.44;100.00;97348.06;5007378;28;20051;-77
2021/12/18 10:04:52;;;;;;;55.33;14.40;;;;;;;-0.44;100.00;97339.50;5008566;28;20045;-77
2021/12/18 10:07:24;;;;;;;46.55;12.73;;;;;;;-0.38;100.00;97341.47;5006760;28;20515;-79
2021/12/18 10:09:58;;;;;;;52.65;13.85;;;;;;;-0.31;100.00;97342.47;5000959;28;20112;-77
2021/12/18 10:12:32;;;;;;;39.65;11.80;;;;;;;-0.02;100.00;97336.91;5007560;28;20065;-78
2021/12/18 10:15:00;;;;;;;41.08;12.50;;;;;;;0.13;100.00;97338.88;4991838;28;20045;-77
2021/12/18 10:17:41;;;;;;;45.03;13.13;;;;;;;0.25;100.00;97336.84;5007880;28;20079;-79
2021/12/18 10:20:09;;;;;;;36.03;11.57;;;;;;;0.21;100.00;97330.34;5005576;28;20038;-78
2021/12/18 10:22:51;;;;;;;40.65;12.52;;;;;;;0.16;100.00;97326.44;4991626;28;20042;-76
2021/12/18 10:25:22;;;;;;;37.65;11.50;;;;;;;0.07;100.00;97330.00;4987658;28;20038;-77
2021/12/18 10:28:04;;;;;;;42.65;12.93;;;;;;;0.14;100.00;97336.16;5003564;28;20078;-77
2021/12/18 10:30:30;;;;;;;43.10;12.25;;;;;;;0.07;100.00;97330.00;4992753;28;20563;-76
2021/12/18 10:33:00;;;;;;;34.50;11.02;;;;;;;0.02;100.00;97327.06;5010048;28;20088;-76
2021/12/18 10:35:45;;;;;;;33.78;11.25;;;;;;;-0.04;100.00;97327.69;5008140;28;20095;-76
2021/12/18 10:38:52;;;;;;;35.65;11.95;;;;;;;-0.09;100.00;97329.94;5004354;28;20043;-75
2021/12/18 10:41:31;;;;;;;33.22;10.93;;;;;;;-0.04;100.00;97332.88;5001892;28;20050;-76
2021/12/18 10:43:59;;;;;;;31.27;11.07;;;;;;;0.04;100.00;97330.28;5001039;28;20096;-75
2021/12/18 10:46:26;;;;;;;31.17;10.30;;;;;;;0.00;100.00;97329.00;5004064;28;20497;-76
2021/12/18 10:48:59;;;;;;;38.80;11.88;;;;;;;0.04;100.00;97335.47;4991723;28;20045;-76
2021/12/18 10:51:27;;;;;;;41.67;11.65;;;;;;;0.01;100.00;97322.84;4993022;28;20041;-75
2021/12/18 10:54:02;;;;;;;37.67;11.63;;;;;;;0.08;100.00;97331.59;5002851;28;20784;-75
2021/12/18 10:56:37;;;;;;;34.95;10.57;;;;;;;0.07;100.00;97330.00;5004878;28;20038;-77
2021/12/18 10:59:03;;;;;;;;;;;;;;;0.08;100.00;97325.63;5009931;28;20064;-76
2021/12/18 11:01:29;;;;;;;31.08;10.68;;;;;;;0.01;100.00;97328.03;5006225;28;19925;-80
2021/12/18 11:03:55;;;;;;;35.13;10.52;;;;;;;-0.03;100.00;97319.78;5002194;28;20049;-79
2021/12/18 11:06:31;;;;;;;32.88;9.98;;;;;;;-0.11;100.00;97313.75;4993337;28;20092;-79
2021/12/18 11:09:06;;;;;;;31.45;9.65;;;;;;;-0.12;100.00;97317.31;5002421;28;20049;-80
2021/12/18 11:14:23;;;;;;;31.77;9.60;;;;;;;0.05;100.00;97306.03;5007987;28;20537;-80
2021/12/18 11:16:55;;;;;;;35.25;11.13;;;;;;;0.01;100.00;97294.38;4983650;28;20564;-80
2021/12/18 11:19:27;;;;;;;48.30;16.42;;;;;;;0.01;100.00;97294.38;4988694;28;20042;-81
2021/12/18 11:22:01;;;;;;;68.25;24.00;;;;;;;0.19;100.00;97286.50;5014356;28;20038;-79
2021/12/18 11:24:35;;;;;;;38.53;12.20;;;;;;;0.45;100.00;97286.34;5007468;28;20041;-79
2021/12/18 11:27:10;;;;;;;29.45;11.38;;;;;;;0.37;100.00;97273.38;4992592;28;20562;-79
2021/12/18 11:29:46;;;;;;;31.15;10.25;;;;;;;0.34;100.00;97265.94;4995041;28;20049;-80
2021/12/18 11:32:19;;;;;;;35.60;10.77;;;;;;;0.34;100.00;97253.00;4995181;28;20084;-77
2021/12/18 11:34:46;;;;;;;36.53;10.40;;;;;;;0.26;100.00;97260.75;5005737;28;20053;-79
2021/12/18 11:37:14;;;;;;;33.22;10.57;;;;;;;0.15;100.00;97254.91;5013402;28;20045;-79
2021/12/18 11:39:41;;;;;;;37.83;11.38;;;;;;;-0.08;100.00;97259.88;5010880;28;20069;-79
2021/12/18 11:42:07;;;;;;;42.45;12.15;;;;;;;-0.15;100.00;97258.09;4994643;28;20064;-78
2021/12/18 11:44:40;;;;;;;44.75;11.65;;;;;;;-0.13;100.00;97256.16;4987663;28;20046;-78
2021/12/18 11:47:30;;;;;;;41.35;11.57;;;;;;;0.02;100.00;97249.41;5003943;28;20053;-78
2021/12/18 11:49:59;;;;;;;37.65;11.10;;;;;;;-0.10;100.00;97255.84;4994389;28;20042;-79
2021/12/18 11:52:25;;;;;;;40.65;12.68;;;;;;;0.00;100.00;97251.34;4998093;28;20051;-80
2021/12/18 11:54:51;;;;;;;35.25;10.40;;;;;;;0.20;100.00;97248.44;4999031;28;20046;-79
2021/12/18 11:57:48;;;;;;;34.20;10.55;;;;;;;-0.07;100.00;97246.00;4997605;28;20054;-78
2021/12/18 12:00:22;;;;;;;36.30;10.77;;;;;;;-0.11;100.00;97249.06;5014179;28;20128;-79